createdAt,value
2019-01-14T00:00:01.133Z,98636.61
2019-01-14T00:05:19.668Z,98650.19
2019-01-14T00:10:38.204Z,98658.00
2019-01-14T00:15:56.809Z,98661.83
2019-01-14T00:21:15.360Z,98682.31
2019-01-14T00:26:33.814Z,98678.36
2019-01-14T00:31:52.302Z,98690.05
2019-01-14T00:37:10.762Z,98680.74
2019-01-14T00:48:01.805Z,98700.74
2019-01-14T00:53:20.269Z,98697.17
2019-01-14T01:04:09.450Z,98718.42
2019-01-14T01:09:28.057Z,98727.14
2019-01-14T01:14:46.748Z,98729.47
2019-01-14T01:20:45.759Z,98733.22
2019-01-14T01:26:17.616Z,98745.35
2019-01-14T01:31:36.081Z,98745.35
2019-01-14T01:36:54.544Z,98748.70
2019-01-14T01:42:13.005Z,98756.29
2019-01-14T01:47:31.470Z,98760.56
2019-01-14T01:52:49.934Z,98771.91
2019-01-14T01:58:08.538Z,98772.19
2019-01-14T02:03:27.023Z,98790.33
2019-01-14T02:08:45.561Z,98812.22
2019-01-14T02:14:04.337Z,98826.27
2019-01-14T02:19:22.863Z,98837.56
2019-01-14T02:24:41.328Z,98833.41
2019-01-14T02:29:59.790Z,98847.75
2019-01-14T02:35:18.386Z,98855.76
2019-01-14T02:40:36.855Z,98862.42
2019-01-14T02:45:55.322Z,98865.23
2019-01-14T02:51:15.084Z,98875.23
2019-01-14T02:56:34.118Z,98884.44
2019-01-14T03:02:11.918Z,98899.70
2019-01-14T03:07:30.631Z,98881.03
2019-01-14T03:12:49.485Z,98892.02
2019-01-14T03:18:08.023Z,98892.55
2019-01-14T03:23:26.553Z,98895.86
2019-01-14T03:28:45.008Z,98907.88
2019-01-14T03:39:35.981Z,98903.08
2019-01-14T03:44:54.516Z,98911.11
2019-01-14T03:50:53.026Z,98925.75
2019-01-14T03:56:11.555Z,98912.67
2019-01-14T04:01:30.086Z,98932.01
2019-01-14T04:06:48.708Z,98931.83
2019-01-14T04:12:07.246Z,98946.80
2019-01-14T04:17:25.760Z,98944.53
2019-01-14T04:22:44.747Z,98942.82
2019-01-14T04:28:03.286Z,98953.73
2019-01-14T04:33:21.810Z,98956.05
2019-01-14T04:44:14.417Z,98979.05
2019-01-14T04:49:32.940Z,98974.67
2019-01-14T04:54:51.474Z,98978.36
2019-01-14T05:00:29.274Z,98971.95
2019-01-14T05:05:47.736Z,98981.91
2019-01-14T05:11:06.265Z,98991.83
2019-01-14T05:16:24.725Z,98994.89
2019-01-14T05:21:43.185Z,99007.11
2019-01-14T05:27:01.781Z,99001.33
2019-01-14T05:32:20.330Z,99003.84
2019-01-14T05:37:38.934Z,99012.05
2019-01-14T05:42:57.473Z,99015.95
2019-01-14T05:48:16.211Z,99030.53
2019-01-14T05:53:34.666Z,99047.30
2019-01-14T05:58:53.137Z,99054.19
2019-01-14T06:04:11.673Z,99061.68
2019-01-14T06:09:30.387Z,99081.23
2019-01-14T06:14:49.012Z,99083.91
2019-01-14T06:20:47.386Z,99095.53
2019-01-14T06:26:05.908Z,99103.91
2019-01-14T06:31:24.374Z,99108.40
2019-01-14T06:36:42.911Z,99124.45
2019-01-14T06:42:01.517Z,99112.63
2019-01-14T06:47:19.980Z,99126.06
2019-01-14T06:52:38.972Z,99124.17
2019-01-14T06:57:57.503Z,99134.42
2019-01-14T07:03:16.032Z,99154.13
2019-01-14T07:08:34.568Z,99172.06
2019-01-14T07:13:53.154Z,99175.52
2019-01-14T07:19:11.944Z,99177.73
2019-01-14T07:24:30.485Z,99183.72
2019-01-14T07:29:48.946Z,99197.19
2019-01-14T07:41:01.018Z,99224.09
2019-01-14T07:46:19.608Z,99250.08
2019-01-14T07:51:38.137Z,99267.34
2019-01-14T08:02:25.812Z,99303.44
2019-01-14T08:07:44.411Z,99321.88
2019-01-14T08:13:02.864Z,99337.67
2019-01-14T08:18:21.528Z,99338.66
2019-01-14T08:23:40.002Z,99332.23
2019-01-14T08:28:58.525Z,99327.17
2019-01-14T08:34:16.996Z,99322.39
2019-01-14T08:45:45.819Z,99353.37
2019-01-14T08:51:04.492Z,99361.20
2019-01-14T08:56:23.048Z,99375.65
2019-01-14T09:01:41.582Z,99370.00
2019-01-14T09:07:00.092Z,99382.86
2019-01-14T09:12:18.640Z,99391.87
2019-01-14T09:17:37.165Z,99398.98
2019-01-14T09:22:55.704Z,99415.25
2019-01-14T09:28:14.179Z,99418.50
2019-01-14T09:44:54.384Z,99437.05
2019-01-14T09:50:52.754Z,99438.20
2019-01-14T09:56:11.219Z,99444.11
2019-01-14T10:01:49.023Z,99444.69
2019-01-14T10:12:38.212Z,99462.53
2019-01-14T10:23:28.760Z,99480.66
2019-01-14T10:28:47.225Z,99485.59
2019-01-14T10:34:05.813Z,99492.45
2019-01-14T10:39:24.550Z,99495.38
2019-01-14T10:44:43.031Z,99498.80
2019-01-14T10:50:01.479Z,99505.73
2019-01-14T10:55:20.030Z,99501.48
2019-01-14T11:00:38.547Z,99512.63
2019-01-14T11:05:57.235Z,99514.15
2019-01-14T11:11:15.700Z,99510.98
2019-01-14T11:16:34.233Z,99518.33
2019-01-14T11:21:52.771Z,99518.47
2019-01-14T11:27:11.366Z,99528.92
2019-01-14T11:32:29.982Z,99536.59
2019-01-14T11:37:48.585Z,99535.27
2019-01-14T11:43:07.283Z,99540.36
2019-01-14T11:48:25.819Z,99553.29
2019-01-14T11:53:44.285Z,99566.89
2019-01-14T11:59:02.759Z,99563.20
2019-01-14T12:04:21.221Z,99571.56
2019-01-14T12:09:39.768Z,99563.85
2019-01-14T12:14:58.233Z,99571.62
2019-01-14T12:20:16.834Z,99574.62
2019-01-14T12:31:07.951Z,99606.13
2019-01-14T12:36:26.425Z,99598.26
2019-01-14T12:41:51.039Z,99572.60
2019-01-14T12:47:05.187Z,99581.48
2019-01-14T12:52:23.713Z,99586.53
2019-01-14T12:57:42.502Z,99599.89
2019-01-14T13:03:01.035Z,99600.73
2019-01-14T13:08:19.551Z,99600.88
2019-01-14T13:13:38.151Z,99617.95
2019-01-14T13:18:56.663Z,99620.61
2019-01-14T13:24:15.261Z,99637.34
2019-01-14T13:29:33.714Z,99645.69
2019-01-14T13:34:52.346Z,99643.95
2019-01-14T13:40:50.719Z,99647.41
2019-01-14T13:46:09.443Z,99632.48
2019-01-14T13:51:27.964Z,99639.53
2019-01-14T13:56:46.437Z,99657.23
2019-01-14T14:02:45.060Z,99666.22
2019-01-14T14:08:03.594Z,99677.70
2019-01-14T14:13:22.135Z,99686.81
2019-01-14T14:18:40.593Z,99701.91
2019-01-14T14:24:18.470Z,99719.31
2019-01-14T14:29:36.919Z,99734.73
2019-01-14T14:34:55.451Z,99748.02
2019-01-14T14:40:14.238Z,99747.38
2019-01-14T14:45:52.088Z,99771.84
2019-01-14T14:51:10.549Z,99771.84
2019-01-14T14:56:29.008Z,99780.06
2019-01-14T15:01:59.178Z,99788.91
2019-01-14T15:07:17.772Z,99791.73
2019-01-14T15:12:36.391Z,99790.23
2019-01-14T15:17:54.921Z,99786.28
2019-01-14T15:23:13.465Z,99797.30
2019-01-14T15:28:31.938Z,99803.05
2019-01-14T15:33:50.464Z,99815.84
2019-01-14T15:39:48.863Z,99824.86
2019-01-14T15:45:47.232Z,99831.11
2019-01-14T15:51:05.678Z,99834.70
2019-01-14T15:56:24.214Z,99848.66
2019-01-14T16:01:43.044Z,99857.19
2019-01-14T16:07:01.576Z,99867.32
2019-01-14T16:12:20.029Z,99886.52
2019-01-14T16:17:38.658Z,99893.57
2019-01-14T16:22:57.248Z,99890.44
2019-01-14T16:28:15.710Z,99893.89
2019-01-14T16:33:34.399Z,99905.33
2019-01-14T16:38:52.856Z,99912.20
2019-01-14T16:44:11.394Z,99915.31
2019-01-14T16:49:29.933Z,99920.42
2019-01-14T16:54:48.701Z,99920.38
2019-01-14T17:00:47.074Z,99930.25
2019-01-14T17:06:05.770Z,99938.23
2019-01-14T17:11:24.370Z,99943.55
2019-01-14T17:16:42.837Z,99953.53
2019-01-14T17:22:01.302Z,99959.06
2019-01-14T17:27:19.755Z,99964.79
2019-01-14T17:32:38.285Z,99975.39
2019-01-14T17:37:56.806Z,99969.11
2019-01-14T17:43:15.355Z,99967.14
2019-01-14T17:48:33.901Z,99971.63
2019-01-14T17:54:06.388Z,99970.31
2019-01-14T17:59:12.533Z,99977.59
2019-01-14T18:04:31.126Z,99983.18
2019-01-14T18:10:29.502Z,99995.33
2019-01-14T18:15:48.324Z,100003.33
2019-01-14T18:21:13.974Z,100020.37
2019-01-14T18:26:27.072Z,100026.92
2019-01-14T18:31:45.595Z,100033.03
2019-01-14T18:37:04.142Z,100045.31
2019-01-14T18:42:22.672Z,100054.80
2019-01-14T18:47:41.286Z,100062.14
2019-01-14T18:52:59.744Z,100057.43
2019-01-14T18:58:18.286Z,100066.64
2019-01-14T19:03:36.742Z,100068.48
2019-01-14T19:08:55.208Z,100067.13
2019-01-14T19:14:13.821Z,100075.83
2019-01-14T19:19:32.382Z,100087.75
2019-01-14T19:24:50.841Z,100090.59
2019-01-14T19:30:30.109Z,100092.47
2019-01-14T19:35:48.585Z,100096.53
2019-01-14T19:41:07.201Z,100106.09
2019-01-14T19:52:17.553Z,100104.13
2019-01-14T20:03:08.687Z,100115.91
2019-01-14T20:08:27.274Z,100130.30
2019-01-14T20:13:45.816Z,100124.44
2019-01-14T20:19:04.524Z,100121.91
2019-01-14T20:24:23.063Z,100133.17
2019-01-14T20:29:41.532Z,100139.82
2019-01-14T20:35:00.091Z,100148.36
2019-01-14T20:40:18.670Z,100157.41
2019-01-14T20:45:37.205Z,100157.05
2019-01-14T20:50:55.745Z,100160.67
2019-01-14T20:56:14.279Z,100165.69
2019-01-14T21:01:32.889Z,100152.51
2019-01-14T21:06:51.358Z,100157.52
2019-01-14T21:12:09.961Z,100163.58
2019-01-14T21:17:28.493Z,100164.91
2019-01-14T21:23:26.865Z,100154.84
2019-01-14T21:29:04.747Z,100157.70
2019-01-14T21:34:23.345Z,100154.02
2019-01-14T21:39:41.806Z,100160.31
2019-01-14T21:45:00.400Z,100159.08
2019-01-14T21:50:58.794Z,100166.88
2019-01-14T21:56:17.333Z,100165.86
2019-01-14T22:01:35.934Z,100169.64
2019-01-14T22:06:54.621Z,100173.92
2019-01-14T22:12:26.812Z,100171.47
2019-01-14T22:17:45.435Z,100172.23
2019-01-14T22:28:55.039Z,100177.38
2019-01-14T22:34:13.655Z,100175.91
2019-01-14T22:39:32.598Z,100174.59
2019-01-14T22:44:51.080Z,100181.94
2019-01-14T22:50:49.751Z,100178.77
2019-01-14T22:56:08.339Z,100189.05
2019-01-14T23:06:59.119Z,100174.52
2019-01-14T23:12:17.660Z,100179.17
2019-01-14T23:17:36.263Z,100181.84
2019-01-14T23:22:54.812Z,100197.20
2019-01-14T23:28:13.345Z,100199.43
2019-01-14T23:33:32.042Z,100189.36
2019-01-14T23:44:20.978Z,100184.27
2019-01-14T23:49:39.547Z,100185.58
2019-01-14T23:54:58.022Z,100180.34
